sensor_id;sensor_type;location;lat;lon;timestamp;P1;durP1;ratioP1;P2;durP2;ratioP2
42092;SDS011;28974;50.316;18.960;2023-01-04T00:06:19;320.55;;;118.60;;
42092;SDS011;28974;50.316;18.960;2023-01-04T00:18:20;280.02;;;112.22;;
42092;SDS011;28974;50.316;18.960;2023-01-04T00:30:20;368.65;;;136.60;;
42092;SDS011;28974;50.316;18.960;2023-01-04T00:42:21;262.23;;;101.97;;
42092;SDS011;28974;50.316;18.960;2023-01-04T00:54:21;206.18;;;80.25;;
42092;SDS011;28974;50.316;18.960;2023-01-04T01:06:22;183.47;;;73.80;;
42092;SDS011;28974;50.316;18.960;2023-01-04T01:18:23;179.25;;;73.70;;
42092;SDS011;28974;50.316;18.960;2023-01-04T01:30:24;186.65;;;72.65;;
42092;SDS011;28974;50.316;18.960;2023-01-04T01:42:24;222.40;;;87.53;;
42092;SDS011;28974;50.316;18.960;2023-01-04T01:54:25;212.95;;;81.20;;
42092;SDS011;28974;50.316;18.960;2023-01-04T02:06:28;213.68;;;83.97;;
42092;SDS011;28974;50.316;18.960;2023-01-04T02:18:32;211.93;;;81.72;;
42092;SDS011;28974;50.316;18.960;2023-01-04T02:55:20;170.02;;;62.00;;
42092;SDS011;28974;50.316;18.960;2023-01-04T03:07:38;166.07;;;65.20;;
42092;SDS011;28974;50.316;18.960;2023-01-04T03:19:40;142.40;;;58.15;;
42092;SDS011;28974;50.316;18.960;2023-01-04T03:31:57;137.35;;;57.03;;
42092;SDS011;28974;50.316;18.960;2023-01-04T03:44:23;133.32;;;52.78;;
42092;SDS011;28974;50.316;18.960;2023-01-04T04:08:46;122.28;;;50.45;;
42092;SDS011;28974;50.316;18.960;2023-01-04T04:20:47;108.93;;;46.40;;
42092;SDS011;28974;50.316;18.960;2023-01-04T04:32:47;118.90;;;44.63;;
42092;SDS011;28974;50.316;18.960;2023-01-04T04:44:48;98.30;;;43.47;;
42092;SDS011;28974;50.316;18.960;2023-01-04T04:56:48;108.50;;;43.90;;
42092;SDS011;28974;50.316;18.960;2023-01-04T05:08:49;101.10;;;42.65;;
42092;SDS011;28974;50.316;18.960;2023-01-04T05:20:49;95.22;;;39.90;;
42092;SDS011;28974;50.316;18.960;2023-01-04T05:32:49;118.35;;;47.13;;
42092;SDS011;28974;50.316;18.960;2023-01-04T05:44:50;139.95;;;57.65;;
42092;SDS011;28974;50.316;18.960;2023-01-04T05:56:51;135.98;;;55.78;;
42092;SDS011;28974;50.316;18.960;2023-01-04T06:08:51;107.38;;;41.80;;
42092;SDS011;28974;50.316;18.960;2023-01-04T06:20:52;108.85;;;44.47;;
42092;SDS011;28974;50.316;18.960;2023-01-04T06:32:52;99.75;;;39.05;;
42092;SDS011;28974;50.316;18.960;2023-01-04T06:44:52;94.50;;;40.08;;
42092;SDS011;28974;50.316;18.960;2023-01-04T06:56:53;78.97;;;34.05;;
42092;SDS011;28974;50.316;18.960;2023-01-04T07:08:54;80.28;;;38.55;;
42092;SDS011;28974;50.316;18.960;2023-01-04T07:20:54;81.93;;;32.75;;
42092;SDS011;28974;50.316;18.960;2023-01-04T07:32:55;86.60;;;35.40;;
42092;SDS011;28974;50.316;18.960;2023-01-04T07:44:55;79.90;;;35.70;;
42092;SDS011;28974;50.316;18.960;2023-01-04T07:56:56;74.18;;;31.08;;
42092;SDS011;28974;50.316;18.960;2023-01-04T08:08:57;59.13;;;26.05;;
42092;SDS011;28974;50.316;18.960;2023-01-04T08:21:01;89.00;;;32.47;;
42092;SDS011;28974;50.316;18.960;2023-01-04T08:33:02;57.85;;;25.17;;
42092;SDS011;28974;50.316;18.960;2023-01-04T08:45:11;67.03;;;27.80;;
42092;SDS011;28974;50.316;18.960;2023-01-04T08:57:11;63.00;;;28.40;;
42092;SDS011;28974;50.316;18.960;2023-01-04T09:09:12;65.68;;;25.25;;
42092;SDS011;28974;50.316;18.960;2023-01-04T09:21:14;69.40;;;25.17;;
42092;SDS011;28974;50.316;18.960;2023-01-04T09:33:15;36.83;;;16.63;;
42092;SDS011;28974;50.316;18.960;2023-01-04T09:45:19;67.90;;;26.65;;
42092;SDS011;28974;50.316;18.960;2023-01-04T09:57:31;45.03;;;19.95;;
42092;SDS011;28974;50.316;18.960;2023-01-04T10:09:32;41.33;;;17.45;;
42092;SDS011;28974;50.316;18.960;2023-01-04T10:21:36;29.85;;;12.23;;
42092;SDS011;28974;50.316;18.960;2023-01-04T10:57:42;42.35;;;15.25;;
42092;SDS011;28974;50.316;18.960;2023-01-04T11:09:50;39.42;;;16.70;;
42092;SDS011;28974;50.316;18.960;2023-01-04T11:21:53;37.40;;;14.67;;
42092;SDS011;28974;50.316;18.960;2023-01-04T11:33:58;32.53;;;11.80;;
42092;SDS011;28974;50.316;18.960;2023-01-04T11:46:00;35.30;;;12.43;;
42092;SDS011;28974;50.316;18.960;2023-01-04T11:58:05;27.48;;;15.20;;
42092;SDS011;28974;50.316;18.960;2023-01-04T12:10:27;34.70;;;13.65;;
42092;SDS011;28974;50.316;18.960;2023-01-04T12:22:36;44.47;;;17.35;;
42092;SDS011;28974;50.316;18.960;2023-01-04T12:34:38;33.72;;;13.98;;
42092;SDS011;28974;50.316;18.960;2023-01-04T12:46:40;39.63;;;16.83;;
42092;SDS011;28974;50.316;18.960;2023-01-04T12:59:21;27.50;;;11.02;;
42092;SDS011;28974;50.316;18.960;2023-01-04T13:11:34;14.55;;;7.63;;
42092;SDS011;28974;50.316;18.960;2023-01-04T13:23:35;19.45;;;7.60;;
42092;SDS011;28974;50.316;18.960;2023-01-04T13:35:36;21.48;;;8.15;;
42092;SDS011;28974;50.316;18.960;2023-01-04T13:47:37;19.73;;;8.85;;
42092;SDS011;28974;50.316;18.960;2023-01-04T13:59:38;23.90;;;9.40;;
42092;SDS011;28974;50.316;18.960;2023-01-04T14:23:58;35.17;;;14.40;;
42092;SDS011;28974;50.316;18.960;2023-01-04T14:48:01;32.22;;;11.10;;
42092;SDS011;28974;50.316;18.960;2023-01-04T15:00:02;25.55;;;10.52;;
42092;SDS011;28974;50.316;18.960;2023-01-04T15:12:02;28.10;;;10.85;;
42092;SDS011;28974;50.316;18.960;2023-01-04T15:24:03;19.25;;;9.63;;
42092;SDS011;28974;50.316;18.960;2023-01-04T15:36:05;23.08;;;10.52;;
42092;SDS011;28974;50.316;18.960;2023-01-04T15:48:06;25.83;;;10.82;;
42092;SDS011;28974;50.316;18.960;2023-01-04T16:00:07;22.73;;;10.85;;
42092;SDS011;28974;50.316;18.960;2023-01-04T16:12:12;41.78;;;15.95;;
42092;SDS011;28974;50.316;18.960;2023-01-04T16:24:31;27.60;;;13.88;;
42092;SDS011;28974;50.316;18.960;2023-01-04T16:36:31;31.08;;;12.48;;
42092;SDS011;28974;50.316;18.960;2023-01-04T16:48:32;29.48;;;12.85;;
42092;SDS011;28974;50.316;18.960;2023-01-04T17:00:32;36.10;;;16.13;;
42092;SDS011;28974;50.316;18.960;2023-01-04T17:12:32;37.60;;;16.80;;
42092;SDS011;28974;50.316;18.960;2023-01-04T17:24:33;38.13;;;17.70;;
42092;SDS011;28974;50.316;18.960;2023-01-04T17:36:33;30.33;;;12.45;;
42092;SDS011;28974;50.316;18.960;2023-01-04T17:48:34;40.42;;;17.55;;
42092;SDS011;28974;50.316;18.960;2023-01-04T18:00:35;24.30;;;9.82;;
42092;SDS011;28974;50.316;18.960;2023-01-04T18:12:35;34.53;;;14.48;;
42092;SDS011;28974;50.316;18.960;2023-01-04T18:24:35;31.52;;;11.55;;
42092;SDS011;28974;50.316;18.960;2023-01-04T18:36:36;36.03;;;14.32;;
42092;SDS011;28974;50.316;18.960;2023-01-04T18:48:36;16.75;;;8.00;;
42092;SDS011;28974;50.316;18.960;2023-01-04T19:00:38;20.58;;;10.23;;
42092;SDS011;28974;50.316;18.960;2023-01-04T19:12:38;21.13;;;9.63;;
42092;SDS011;28974;50.316;18.960;2023-01-04T19:24:39;21.98;;;9.55;;
42092;SDS011;28974;50.316;18.960;2023-01-04T19:36:41;34.13;;;13.93;;
42092;SDS011;28974;50.316;18.960;2023-01-04T19:48:41;27.27;;;10.52;;
42092;SDS011;28974;50.316;18.960;2023-01-04T20:00:45;29.88;;;12.32;;
42092;SDS011;28974;50.316;18.960;2023-01-04T20:12:46;29.40;;;7.95;;
42092;SDS011;28974;50.316;18.960;2023-01-04T20:24:46;28.42;;;11.80;;
42092;SDS011;28974;50.316;18.960;2023-01-04T20:36:46;21.05;;;9.00;;
42092;SDS011;28974;50.316;18.960;2023-01-04T20:48:47;28.33;;;12.32;;
42092;SDS011;28974;50.316;18.960;2023-01-04T21:00:47;28.05;;;12.40;;
42092;SDS011;28974;50.316;18.960;2023-01-04T21:12:48;17.80;;;7.88;;
42092;SDS011;28974;50.316;18.960;2023-01-04T21:24:48;21.75;;;9.15;;
42092;SDS011;28974;50.316;18.960;2023-01-04T21:36:49;15.60;;;7.77;;
42092;SDS011;28974;50.316;18.960;2023-01-04T21:48:53;27.25;;;11.30;;
42092;SDS011;28974;50.316;18.960;2023-01-04T22:00:54;25.25;;;8.68;;
42092;SDS011;28974;50.316;18.960;2023-01-04T22:12:55;27.00;;;11.25;;
42092;SDS011;28974;50.316;18.960;2023-01-04T22:24:55;19.52;;;9.98;;
42092;SDS011;28974;50.316;18.960;2023-01-04T22:36:56;23.97;;;9.10;;
42092;SDS011;28974;50.316;18.960;2023-01-04T22:48:57;24.38;;;9.90;;
42092;SDS011;28974;50.316;18.960;2023-01-04T23:00:58;26.80;;;10.65;;
42092;SDS011;28974;50.316;18.960;2023-01-04T23:12:58;22.23;;;10.73;;
42092;SDS011;28974;50.316;18.960;2023-01-04T23:24:59;12.00;;;7.00;;
42092;SDS011;28974;50.316;18.960;2023-01-04T23:36:59;16.05;;;6.18;;
42092;SDS011;28974;50.316;18.960;2023-01-04T23:48:59;21.27;;;9.55;;
